LFLN/SYT METAR and TAF weather

Enter ICAO airport designator
Station Type Date Time Source
LFLN METAR 2019/11/21 03:30 UTC NOAA

LFLN 210330Z AUTO VRB01KT 1600 BR FEW002 OVC240 M01/M01 Q1008


Station Type Date Time Source
LFLN Decoded METAR 2019/11/21 03:30 UTC NOAA

Saint-Yan, France (LFLN) 46-25N 004-01E 244M
Nov 20, 2019 - 10:30 PM EST / 2019.11.21 0330 UTC
Wind: Variable at 1 MPH (1 KT):0
Visibility: less than 1 mile:0
Sky conditions: overcast
Weather: mist
Temperature: 30 F (-1 C)
Dew Point: 30 F (-1 C)
Relative Humidity: 100%
Pressure (altimeter): 29.77 in. Hg (1008 hPa)
ob: LFLN 210330Z AUTO VRB01KT 1600 BR FEW002 OVC240 M01/M01 Q1008
cycle: 3

Station Type Date Time Source
LFLN TAF UTC NOAA

Error!

Example: see airport list